首页
METAR-TAF:

METAR-TAF

机场 :

布達佩斯李斯特·費倫茨國際機場

布达佩斯, 匈牙利

纬度: 47-26N, 经度: 019-16E, 海拔: 151米

当前天气观测

该预报发布于14分钟前的08:30 UTC
风速2节,风向多变
温度 -1°C
湿度 100%
气压 1029 hPa
能見度: 0150
冻雾

METAR: LHBP 170830Z VRB02KT 0150 R31L/0200N R31R/0200N FZFG VV001 M01/M01 Q1029 BECMG 1500 BR NSC

时间: 09:44 (08:44 UTC)

预报

该预报发布于2小时和54分钟前的05:50 UTC
预报有效从17日的 06点(UTC)到 18日的 06点(UTC)
风速3节,风向多变
能見度: 0400
冻雾
短暂存在
从 17日的 06点(UTC)到 17日的 10点(UTC)
能見度: 0100
层高于100英尺
冻雾
成为
从 17日的 10点(UTC)到 17日的 13点(UTC)
能見度: 5000
轻雾
短暂存在
从 17日的 13点(UTC)到 17日的 18点(UTC)
能见度10公里或以上
1500米以下无云,无积雨云
成为
从 17日的 20点(UTC)到 17日的 22点(UTC)
能見度: 3000
轻雾
成为
从 17日的 22点(UTC)到 17日的 24点(UTC)
能見度: 0500
冻雾
短暂存在
从 18日的 00点(UTC)到 18日的 06点(UTC)
能見度: 0200
层高于200英尺
冻雾

TAF: LHBP 170550Z 1706/1806 VRB03KT 0400 FZFG NSC TEMPO 1706/1710 0100 FZFG VV001 BECMG 1710/1713 5000 BR TEMPO 1713/1718 CAVOK BECMG 1720/1722 3000 BR BECMG 1722/1724 0500 FZFG TEMPO 1800/1806 0200 FZFG VV002

超过4000个机场的气象观测和天气预报(METAR&TAF报告)。

可查询的气象台以黄色和红色小点在地图上表示。

将鼠标移到小点上方,可查看气象台名称。

然后点击查看天气观测和预报。

如需切换地图:点击带黑十字的绿色按钮放大地图;点击带横线的绿色按钮缩小地图;或者点击绿色箭头查看邻近地区的地图。


METAR-TAF: